Dodoma Airport

Airport
ICAO code: 
HTDO
IATA Code: 
DOD
Summary
ICAO Region: 
AFI
Territory: 
Location: 
Dodoma, Dodoma Region
Serving: 
Dodoma
Elevation: 
3637 ft
Coordinates: 
Aerial View: 
6° 10' 13.008" S, 35° 44' 57.984" E
Metar
Observation
HTDO 281200Z 00000KT 9999 SCT026 FEW027CB 29/17 Q1013 NOSIG
Station
Dodoma
Date/Time
2022-01-28 12:00:00
Wind direction
Wind speed
00 kts
Lowest cloud amount
scattered clouds
Temperature
29°C
Dew point
17°C
Humidity
48%
QNH
1013 hPa
Weather condition
n/a

Dodoma Airport is an airport serving the Tanzanian capital of Dodoma.

Climatology

Warm semi-arid climate (Köppen climate classification BSh)

Runways

Designator Length Width Surface Rops
10/28 2042 30 ASP No/No
Airport map: 
Aerial View: 

SKYbrary Partners:

Safety knowledge contributed by: